createdAt,value
2017-11-06T00:02:25.229Z,76.20
2017-11-06T00:04:53.564Z,76.30
2017-11-06T00:07:21.103Z,76.30
2017-11-06T00:09:48.629Z,76.20
2017-11-06T00:12:16.885Z,76.60
2017-11-06T00:14:44.407Z,76.50
2017-11-06T00:17:11.907Z,76.40
2017-11-06T00:19:39.425Z,77.00
2017-11-06T00:22:06.948Z,77.50
2017-11-06T00:24:35.332Z,77.10
2017-11-06T00:27:02.826Z,77.10
2017-11-06T00:29:30.325Z,77.20
2017-11-06T00:31:58.634Z,77.40
2017-11-06T00:34:26.147Z,77.30
2017-11-06T00:36:53.682Z,77.50
2017-11-06T00:39:21.187Z,76.90
2017-11-06T00:41:48.685Z,78.40
2017-11-06T00:44:16.201Z,77.60
2017-11-06T00:46:43.693Z,77.90
2017-11-06T00:49:11.222Z,77.90
2017-11-06T00:51:38.708Z,77.90
2017-11-06T00:54:06.199Z,77.80
2017-11-06T00:56:33.734Z,77.80
2017-11-06T00:59:01.263Z,77.80
2017-11-06T01:01:28.805Z,78.00
2017-11-06T01:03:56.332Z,78.00
2017-11-06T01:06:23.828Z,77.90
2017-11-06T01:08:51.361Z,77.90
2017-11-06T01:11:19.627Z,78.40
2017-11-06T01:13:47.926Z,79.40
2017-11-06T01:16:15.417Z,78.50
2017-11-06T01:18:42.941Z,78.50
2017-11-06T01:21:10.445Z,78.40
2017-11-06T01:23:37.958Z,78.50
2017-11-06T01:26:05.492Z,78.40
2017-11-06T01:28:32.994Z,78.30
2017-11-06T01:31:00.508Z,78.20
2017-11-06T01:33:28.808Z,78.50
2017-11-06T01:35:56.309Z,78.30
2017-11-06T01:38:23.825Z,78.20
2017-11-06T01:40:51.315Z,78.10
2017-11-06T01:43:18.941Z,78.20
2017-11-06T01:45:46.441Z,78.20
2017-11-06T01:48:13.941Z,78.20
2017-11-06T01:50:42.235Z,78.30
2017-11-06T01:53:09.733Z,78.20
2017-11-06T01:55:37.262Z,78.30
2017-11-06T01:58:04.767Z,78.30
2017-11-06T02:00:38.944Z,78.20
2017-11-06T02:03:06.447Z,78.40
2017-11-06T02:05:33.981Z,78.50
2017-11-06T02:08:02.301Z,78.50
2017-11-06T02:10:29.805Z,78.50
2017-11-06T02:12:57.442Z,78.50
2017-11-06T02:15:24.963Z,78.40
2017-11-06T02:17:52.513Z,78.40
2017-11-06T02:20:20.010Z,78.60
2017-11-06T02:22:47.549Z,78.60
2017-11-06T02:25:15.861Z,79.60
2017-11-06T02:27:43.373Z,79.60
2017-11-06T02:30:11.686Z,79.70
2017-11-06T02:32:39.242Z,79.70
2017-11-06T02:35:06.763Z,79.80
2017-11-06T02:37:35.061Z,79.90
2017-11-06T02:40:02.589Z,80.70
2017-11-06T02:42:30.892Z,79.90
2017-11-06T02:44:58.415Z,79.80
2017-11-06T02:47:25.907Z,80.00
2017-11-06T02:49:53.478Z,80.00
2017-11-06T02:52:20.986Z,79.90
2017-11-06T02:54:48.508Z,80.00
2017-11-06T02:57:16.974Z,80.10
2017-11-06T02:59:44.505Z,80.70
2017-11-06T03:02:12.790Z,80.30
2017-11-06T03:04:40.276Z,80.20
2017-11-06T03:07:07.812Z,80.20
2017-11-06T03:09:35.323Z,80.30
2017-11-06T03:12:02.862Z,80.20
2017-11-06T03:14:30.393Z,80.00
2017-11-06T03:16:57.901Z,80.20
2017-11-06T03:19:25.429Z,80.30
2017-11-06T03:21:52.953Z,80.30
2017-11-06T03:24:20.458Z,80.40
2017-11-06T03:26:47.989Z,80.10
2017-11-06T03:29:15.541Z,80.00
2017-11-06T03:31:43.076Z,80.10
2017-11-06T03:34:11.346Z,80.20
2017-11-06T03:36:39.673Z,79.90
2017-11-06T03:39:07.293Z,79.90
2017-11-06T03:41:34.796Z,79.60
2017-11-06T03:44:02.404Z,79.80
2017-11-06T03:46:29.944Z,79.60
2017-11-06T03:48:57.777Z,79.80
2017-11-06T03:51:25.276Z,79.50
2017-11-06T03:53:53.542Z,79.70
2017-11-06T03:56:21.848Z,79.80
2017-11-06T03:58:49.362Z,79.80
2017-11-06T04:01:18.410Z,79.00
2017-11-06T04:03:45.909Z,79.10
2017-11-06T04:06:13.417Z,79.20
2017-11-06T04:08:40.942Z,79.40
2017-11-06T04:11:09.201Z,79.30
2017-11-06T04:13:36.743Z,79.10
2017-11-06T04:16:04.256Z,79.30
2017-11-06T04:18:31.798Z,79.60
2017-11-06T04:21:00.096Z,79.40
2017-11-06T04:23:27.602Z,79.40
2017-11-06T04:25:55.123Z,79.50
2017-11-06T04:28:22.622Z,79.90
2017-11-06T04:30:50.163Z,79.70
2017-11-06T04:33:17.681Z,79.40
2017-11-06T04:35:45.213Z,79.50
2017-11-06T04:38:13.481Z,79.40
2017-11-06T04:40:41.761Z,79.00
2017-11-06T04:43:10.044Z,79.00
2017-11-06T04:45:38.337Z,79.00
2017-11-06T04:48:05.883Z,79.00
2017-11-06T04:50:34.148Z,79.10
2017-11-06T04:53:02.413Z,79.20
2017-11-06T04:55:29.955Z,79.20
2017-11-06T04:57:57.457Z,79.00
2017-11-06T05:00:25.834Z,79.20
2017-11-06T05:02:53.338Z,79.20
2017-11-06T05:05:20.838Z,79.30
2017-11-06T05:07:49.134Z,79.00
2017-11-06T05:10:16.685Z,79.00
2017-11-06T05:12:44.203Z,78.80
2017-11-06T05:15:11.698Z,78.80
2017-11-06T05:17:39.233Z,78.90
2017-11-06T05:20:06.735Z,78.60
2017-11-06T05:22:34.260Z,78.40
2017-11-06T05:25:02.545Z,78.50
2017-11-06T05:27:30.090Z,78.40
2017-11-06T05:29:58.354Z,78.30
2017-11-06T05:32:25.860Z,78.20
2017-11-06T05:34:53.414Z,78.30
2017-11-06T05:37:20.920Z,78.60
2017-11-06T05:39:48.454Z,78.50
2017-11-06T05:42:15.953Z,78.60
2017-11-06T05:44:44.249Z,78.50
2017-11-06T05:47:11.764Z,78.50
2017-11-06T05:49:39.289Z,78.80
2017-11-06T05:52:06.813Z,78.90
2017-11-06T05:54:34.326Z,78.90
2017-11-06T05:57:01.875Z,78.60
2017-11-06T05:59:29.393Z,78.60
2017-11-06T06:01:56.897Z,78.50
2017-11-06T06:04:24.425Z,78.20
2017-11-06T06:06:51.928Z,78.10
2017-11-06T06:09:19.463Z,78.10
2017-11-06T06:11:46.969Z,77.90
2017-11-06T06:14:15.277Z,78.20
2017-11-06T06:16:42.793Z,78.20
2017-11-06T06:19:11.092Z,77.90
2017-11-06T06:21:38.611Z,77.80
2017-11-06T06:24:06.116Z,77.80
2017-11-06T06:26:33.678Z,77.80
2017-11-06T06:29:01.181Z,77.80
2017-11-06T06:31:28.780Z,77.60
2017-11-06T06:33:56.338Z,77.40
2017-11-06T06:36:23.837Z,77.10
2017-11-06T06:38:51.378Z,77.30
2017-11-06T06:41:18.899Z,77.60
2017-11-06T06:43:46.407Z,77.30
2017-11-06T06:46:13.925Z,77.80
2017-11-06T06:48:41.429Z,77.30
2017-11-06T06:51:08.964Z,77.20
2017-11-06T06:53:36.501Z,77.10
2017-11-06T06:56:04.035Z,77.00
2017-11-06T06:58:32.301Z,76.60
2017-11-06T07:00:59.824Z,76.60
2017-11-06T07:03:27.325Z,76.80
2017-11-06T07:05:55.611Z,77.30
2017-11-06T07:08:23.138Z,77.20
2017-11-06T07:10:50.653Z,77.00
2017-11-06T07:13:18.197Z,77.70
2017-11-06T07:15:45.705Z,77.00
2017-11-06T07:18:13.313Z,76.80
2017-11-06T07:20:40.804Z,76.70
2017-11-06T07:23:08.301Z,76.70
2017-11-06T07:25:36.583Z,76.80
2017-11-06T07:28:04.145Z,76.70
2017-11-06T07:30:32.436Z,76.30
2017-11-06T07:32:59.993Z,76.20
2017-11-06T07:35:27.545Z,76.30
2017-11-06T07:37:55.125Z,76.20
2017-11-06T07:40:22.673Z,76.10
2017-11-06T07:42:50.213Z,76.10
2017-11-06T07:45:18.482Z,76.50
2017-11-06T07:47:46.824Z,76.70
2017-11-06T07:50:14.320Z,76.60
2017-11-06T07:52:42.580Z,76.10
2017-11-06T07:55:10.165Z,76.10
2017-11-06T07:57:37.669Z,76.20
2017-11-06T08:00:05.198Z,76.20
2017-11-06T08:02:32.722Z,75.90
2017-11-06T08:05:01.018Z,76.00
2017-11-06T08:07:28.578Z,76.00
2017-11-06T08:09:56.113Z,75.90
2017-11-06T08:12:23.653Z,76.00
2017-11-06T08:14:51.178Z,76.30
2017-11-06T08:17:18.690Z,76.20
2017-11-06T08:19:46.983Z,76.00
2017-11-06T08:22:14.484Z,76.00
2017-11-06T08:24:42.112Z,75.90
2017-11-06T08:27:09.641Z,76.20
2017-11-06T08:29:37.188Z,76.30
2017-11-06T08:32:04.686Z,75.70
2017-11-06T08:34:32.193Z,75.80
2017-11-06T08:36:59.717Z,75.80
2017-11-06T08:39:27.249Z,76.30
2017-11-06T08:41:54.741Z,75.60
2017-11-06T08:44:22.258Z,75.50
2017-11-06T08:46:49.780Z,75.80
2017-11-06T08:49:17.309Z,75.90
2017-11-06T08:51:44.841Z,76.10
2017-11-06T08:54:12.368Z,75.60
2017-11-06T08:56:40.672Z,74.70
2017-11-06T08:59:08.179Z,74.70
2017-11-06T09:01:35.677Z,74.50
2017-11-06T09:04:03.202Z,74.50
2017-11-06T09:06:30.711Z,74.20
2017-11-06T09:08:58.240Z,74.20
2017-11-06T09:11:26.531Z,73.80
2017-11-06T09:13:54.048Z,73.80
2017-11-06T09:16:22.338Z,73.90
2017-11-06T09:18:50.616Z,73.50
2017-11-06T09:21:18.906Z,73.40
2017-11-06T09:23:47.165Z,73.00
2017-11-06T09:26:15.463Z,73.60
2017-11-06T09:28:42.985Z,72.80
2017-11-06T09:31:10.521Z,72.50
2017-11-06T09:33:38.058Z,72.40
2017-11-06T09:36:05.578Z,72.20
2017-11-06T09:38:33.847Z,72.50
2017-11-06T09:41:02.158Z,72.20
2017-11-06T09:43:29.657Z,72.00
2017-11-06T09:45:57.152Z,72.20
2017-11-06T09:48:25.449Z,72.60
2017-11-06T09:50:53.013Z,72.50
2017-11-06T09:53:20.563Z,72.20
2017-11-06T09:55:48.097Z,72.20
2017-11-06T09:58:16.385Z,72.50
2017-11-06T10:00:43.888Z,72.40
2017-11-06T10:03:11.429Z,72.20
2017-11-06T10:05:38.936Z,72.30
2017-11-06T10:08:07.219Z,72.00
2017-11-06T10:10:35.612Z,71.80
2017-11-06T10:13:03.109Z,71.80
2017-11-06T10:15:30.652Z,71.80
2017-11-06T10:17:58.163Z,72.30
2017-11-06T10:20:26.496Z,72.60
2017-11-06T10:22:54.001Z,72.60
2017-11-06T10:25:22.317Z,72.80
2017-11-06T10:27:49.850Z,72.80
2017-11-06T10:30:17.365Z,72.80
2017-11-06T10:32:44.897Z,72.70
2017-11-06T10:35:12.403Z,72.80
2017-11-06T10:37:40.817Z,73.10
2017-11-06T10:40:08.333Z,73.10
2017-11-06T10:42:36.636Z,72.80
2017-11-06T10:45:04.182Z,72.80
2017-11-06T10:47:32.465Z,72.50
2017-11-06T10:49:59.984Z,72.50
2017-11-06T10:52:27.513Z,72.40
2017-11-06T10:54:55.011Z,72.40
2017-11-06T10:57:22.711Z,72.50
2017-11-06T10:59:50.221Z,72.50
2017-11-06T11:02:17.717Z,72.60
2017-11-06T11:04:45.233Z,72.50
2017-11-06T11:07:12.754Z,72.40
2017-11-06T11:09:40.276Z,72.80
2017-11-06T11:12:08.545Z,72.80
2017-11-06T11:14:36.845Z,72.70
2017-11-06T11:17:04.380Z,72.70
2017-11-06T11:19:32.642Z,72.50
2017-11-06T11:22:00.176Z,72.40
2017-11-06T11:24:27.688Z,72.30
2017-11-06T11:26:55.190Z,72.10
2017-11-06T11:29:22.731Z,72.30
2017-11-06T11:31:50.227Z,72.20
2017-11-06T11:34:17.762Z,71.60
2017-11-06T11:36:45.282Z,71.40
2017-11-06T11:39:12.838Z,71.40
2017-11-06T11:41:40.380Z,71.40
2017-11-06T11:44:08.678Z,71.00
2017-11-06T11:46:36.223Z,70.90
2017-11-06T11:49:03.820Z,71.00
2017-11-06T11:51:31.398Z,71.20
2017-11-06T11:53:58.896Z,71.10
2017-11-06T11:56:27.185Z,71.30
2017-11-06T11:58:54.700Z,71.30
2017-11-06T12:01:22.229Z,71.40
2017-11-06T12:03:49.750Z,70.90
2017-11-06T12:06:17.251Z,71.00
2017-11-06T12:08:44.789Z,70.90
2017-11-06T12:11:12.292Z,70.70
2017-11-06T12:13:39.792Z,70.50
2017-11-06T12:16:07.365Z,70.70
2017-11-06T12:18:34.863Z,69.90
2017-11-06T12:21:02.397Z,69.90
2017-11-06T12:23:29.910Z,70.80
2017-11-06T12:25:57.462Z,69.50
2017-11-06T12:28:25.736Z,69.90
2017-11-06T12:30:54.020Z,69.70
2017-11-06T12:33:21.536Z,69.70
2017-11-06T12:35:49.134Z,69.60
2017-11-06T12:38:16.663Z,69.40
2017-11-06T12:40:44.934Z,69.90
2017-11-06T12:43:12.452Z,70.10
2017-11-06T12:45:39.973Z,69.70
2017-11-06T12:48:08.371Z,69.00
2017-11-06T12:50:35.856Z,69.00
2017-11-06T12:53:03.344Z,68.60
2017-11-06T12:55:30.865Z,68.50
2017-11-06T12:57:58.393Z,68.20
2017-11-06T13:00:25.922Z,68.30
2017-11-06T13:02:54.186Z,68.80
2017-11-06T13:05:21.732Z,68.30
2017-11-06T13:07:49.240Z,68.30
2017-11-06T13:10:16.750Z,68.60
2017-11-06T13:12:44.276Z,68.10
2017-11-06T13:15:11.776Z,68.10
2017-11-06T13:17:39.321Z,67.80
2017-11-06T13:20:06.813Z,67.90
2017-11-06T13:22:35.112Z,67.50
2017-11-06T13:25:02.766Z,67.50
2017-11-06T13:27:30.258Z,67.30
2017-11-06T13:29:57.788Z,67.30
2017-11-06T13:32:25.293Z,67.10
2017-11-06T13:34:52.780Z,66.50
2017-11-06T13:37:21.067Z,66.80
2017-11-06T13:39:48.578Z,66.80
2017-11-06T13:42:16.881Z,66.70
2017-11-06T13:44:45.149Z,66.70
2017-11-06T13:47:13.434Z,66.50
2017-11-06T13:49:41.703Z,66.30
2017-11-06T13:52:10.037Z,66.30
2017-11-06T13:54:37.544Z,66.20
2017-11-06T13:57:05.066Z,66.00
2017-11-06T13:59:32.580Z,66.30
2017-11-06T14:02:00.069Z,66.50
2017-11-06T14:04:27.618Z,66.80
2017-11-06T14:06:55.117Z,67.00
2017-11-06T14:09:22.622Z,66.80
2017-11-06T14:11:50.153Z,67.40
2017-11-06T14:14:18.420Z,67.10
2017-11-06T14:16:46.708Z,67.20
2017-11-06T14:19:14.209Z,67.10
2017-11-06T14:21:41.749Z,66.90
2017-11-06T14:24:09.271Z,66.40
2017-11-06T14:26:37.555Z,66.50
2017-11-06T14:29:05.064Z,66.50
2017-11-06T14:31:32.582Z,66.30
2017-11-06T14:34:00.138Z,66.40
2017-11-06T14:36:27.641Z,66.20
2017-11-06T14:38:55.149Z,66.40
2017-11-06T14:41:22.675Z,66.40
2017-11-06T14:43:50.276Z,66.80
2017-11-06T14:46:17.802Z,67.00
2017-11-06T14:48:46.067Z,67.00
2017-11-06T14:51:14.331Z,67.00
2017-11-06T14:53:41.946Z,66.90
2017-11-06T14:56:09.442Z,67.00
2017-11-06T14:58:36.986Z,67.00
2017-11-06T15:01:05.372Z,66.80
2017-11-06T15:03:32.890Z,66.80
2017-11-06T15:06:00.411Z,66.80
2017-11-06T15:08:28.679Z,66.50
2017-11-06T15:10:56.210Z,66.80
2017-11-06T15:13:23.718Z,66.90
2017-11-06T15:15:52.315Z,67.10
2017-11-06T15:18:19.839Z,67.10
2017-11-06T15:20:47.337Z,67.00
2017-11-06T15:23:14.862Z,66.70
2017-11-06T15:25:43.152Z,67.50
2017-11-06T15:28:11.420Z,67.00
2017-11-06T15:30:39.723Z,66.80
2017-11-06T15:33:07.223Z,66.80
2017-11-06T15:35:34.757Z,66.10
2017-11-06T15:38:02.250Z,66.10
2017-11-06T15:40:29.779Z,66.10
2017-11-06T15:42:57.277Z,65.90
2017-11-06T15:45:25.560Z,65.50
2017-11-06T15:47:53.847Z,65.50
2017-11-06T15:50:21.370Z,65.50
2017-11-06T15:52:48.980Z,65.70
2017-11-06T15:55:16.503Z,65.70
2017-11-06T15:57:44.820Z,65.40
2017-11-06T16:00:12.349Z,65.30
2017-11-06T16:02:40.737Z,65.30
2017-11-06T16:05:08.245Z,65.20
2017-11-06T16:07:35.744Z,65.60
2017-11-06T16:10:04.027Z,66.10
2017-11-06T16:12:31.557Z,66.20
2017-11-06T16:14:59.849Z,66.30
2017-11-06T16:17:28.143Z,66.20
2017-11-06T16:19:55.646Z,66.10
2017-11-06T16:22:23.181Z,66.30
2017-11-06T16:24:50.727Z,66.20
2017-11-06T16:27:18.286Z,66.60
2017-11-06T16:29:45.818Z,66.70
2017-11-06T16:32:14.096Z,67.00
2017-11-06T16:34:41.653Z,67.00
2017-11-06T16:37:09.936Z,67.10
2017-11-06T16:39:37.446Z,67.10
2017-11-06T16:42:04.978Z,67.10
2017-11-06T16:44:32.516Z,66.60
2017-11-06T16:47:00.062Z,65.80
2017-11-06T16:49:28.328Z,64.70
2017-11-06T16:51:56.604Z,64.50
2017-11-06T16:54:24.989Z,64.50
2017-11-06T16:56:53.271Z,64.10
2017-11-06T16:59:20.800Z,64.10
2017-11-06T17:01:48.353Z,63.70
2017-11-06T17:04:15.861Z,64.30
2017-11-06T17:06:43.385Z,64.20
2017-11-06T17:09:11.666Z,63.90
2017-11-06T17:11:39.200Z,63.90
2017-11-06T17:14:06.693Z,63.30
2017-11-06T17:16:34.230Z,63.40
2017-11-06T17:19:02.528Z,62.30
2017-11-06T17:21:30.789Z,62.60
2017-11-06T17:23:59.075Z,62.50
2017-11-06T17:26:26.635Z,62.50
2017-11-06T17:28:54.159Z,62.30
2017-11-06T17:31:21.730Z,62.50
2017-11-06T17:33:49.989Z,62.10
2017-11-06T17:36:17.513Z,62.00
2017-11-06T17:38:45.044Z,62.00
2017-11-06T17:41:12.548Z,62.20
2017-11-06T17:43:40.066Z,62.30
2017-11-06T17:46:07.597Z,62.50
2017-11-06T17:48:35.910Z,63.10
2017-11-06T17:51:03.426Z,63.10
2017-11-06T17:53:31.695Z,62.90
2017-11-06T17:56:00.054Z,63.70
2017-11-06T17:58:27.565Z,62.90
2017-11-06T18:00:55.106Z,63.10
2017-11-06T18:03:23.403Z,63.00
2017-11-06T18:05:50.928Z,62.90
2017-11-06T18:08:19.230Z,63.10
2017-11-06T18:10:46.729Z,63.00
2017-11-06T18:13:14.255Z,63.30
2017-11-06T18:15:41.789Z,63.10
2017-11-06T18:18:09.304Z,63.20
2017-11-06T18:20:37.630Z,63.30
2017-11-06T18:23:05.213Z,63.30
2017-11-06T18:25:32.761Z,63.30
2017-11-06T18:28:00.309Z,63.60
2017-11-06T18:30:27.864Z,64.50
2017-11-06T18:32:55.395Z,63.80
2017-11-06T18:35:23.671Z,64.20
2017-11-06T18:37:51.980Z,64.20
2017-11-06T18:40:19.493Z,64.20
2017-11-06T18:42:47.081Z,64.10
2017-11-06T18:45:15.351Z,64.70
2017-11-06T18:47:43.639Z,64.80
2017-11-06T18:50:11.193Z,64.60
2017-11-06T18:52:39.457Z,64.80
2017-11-06T18:55:07.768Z,64.80
2017-11-06T18:57:35.296Z,64.70
2017-11-06T19:00:03.610Z,64.70
2017-11-06T19:02:31.168Z,64.70
2017-11-06T19:04:58.688Z,64.60
2017-11-06T19:07:27.037Z,65.20
2017-11-06T19:09:54.551Z,65.10
2017-11-06T19:12:22.070Z,65.10
2017-11-06T19:14:50.349Z,66.00
2017-11-06T19:17:19.060Z,64.70
2017-11-06T19:19:46.568Z,64.70
2017-11-06T19:22:14.907Z,64.40
2017-11-06T19:24:42.521Z,64.40
2017-11-06T19:27:10.432Z,64.10
2017-11-06T19:29:38.208Z,64.30
2017-11-06T19:32:05.745Z,64.20
2017-11-06T19:34:33.302Z,64.20
2017-11-06T19:37:00.845Z,64.00
2017-11-06T19:39:28.385Z,64.00
2017-11-06T19:41:56.740Z,64.50
2017-11-06T19:44:24.268Z,64.40
2017-11-06T19:46:51.837Z,64.40
2017-11-06T19:49:19.345Z,64.40
2017-11-06T19:51:47.626Z,63.90
2017-11-06T19:54:15.191Z,63.80
2017-11-06T19:56:42.774Z,63.80
2017-11-06T19:59:10.333Z,64.10
2017-11-06T20:01:37.853Z,64.60
2017-11-06T20:04:06.573Z,64.60
2017-11-06T20:06:34.645Z,64.60
2017-11-06T20:09:02.570Z,64.80
2017-11-06T20:11:30.714Z,65.20
2017-11-06T20:13:58.752Z,64.90
2017-11-06T20:16:26.736Z,65.00
2017-11-06T20:18:55.412Z,65.10
2017-11-06T20:21:23.474Z,65.00
2017-11-06T20:23:51.649Z,65.00
2017-11-06T20:26:19.719Z,65.00
2017-11-06T20:28:47.685Z,65.00
2017-11-06T20:31:15.654Z,65.10
2017-11-06T20:33:43.724Z,65.40
2017-11-06T20:36:13.238Z,65.90
2017-11-06T20:38:41.094Z,65.90
2017-11-06T20:41:09.164Z,66.00
2017-11-06T20:43:37.254Z,65.90
2017-11-06T20:46:06.030Z,66.20
2017-11-06T20:48:35.016Z,66.10
2017-11-06T20:51:03.290Z,66.00
2017-11-06T20:53:31.888Z,66.30
2017-11-06T20:56:00.344Z,66.30
2017-11-06T20:58:28.031Z,66.10
2017-11-06T21:00:55.888Z,66.30
2017-11-06T21:03:23.481Z,66.00
2017-11-06T21:05:51.202Z,66.10
2017-11-06T21:08:18.727Z,66.20
2017-11-06T21:10:46.285Z,66.20
2017-11-06T21:13:14.610Z,66.50
2017-11-06T21:15:42.233Z,66.40
2017-11-06T21:18:09.790Z,66.60
2017-11-06T21:20:37.446Z,66.90
2017-11-06T21:23:05.790Z,67.10
2017-11-06T21:25:33.349Z,67.10
2017-11-06T21:28:01.749Z,67.10
2017-11-06T21:30:35.486Z,66.90
2017-11-06T21:33:03.364Z,66.90
2017-11-06T21:35:30.931Z,66.90
2017-11-06T21:37:58.498Z,66.90
2017-11-06T21:40:26.029Z,67.10
2017-11-06T21:42:53.700Z,67.20
2017-11-06T21:45:21.273Z,67.50
2017-11-06T21:47:48.843Z,67.50
2017-11-06T21:50:16.369Z,67.70
2017-11-06T21:52:43.919Z,67.90
2017-11-06T21:55:11.486Z,67.80
2017-11-06T21:57:39.021Z,67.90
2017-11-06T22:00:06.620Z,68.10
2017-11-06T22:02:34.164Z,69.00
2017-11-06T22:05:01.666Z,68.10
2017-11-06T22:07:29.245Z,68.30
2017-11-06T22:09:57.534Z,69.70
2017-11-06T22:12:25.130Z,68.70
2017-11-06T22:14:52.741Z,69.30
2017-11-06T22:17:21.137Z,69.50
2017-11-06T22:19:49.017Z,69.50
2017-11-06T22:22:16.538Z,69.40
2017-11-06T22:24:44.834Z,69.50
2017-11-06T22:27:12.430Z,69.50
2017-11-06T22:29:39.963Z,69.40
2017-11-06T22:32:07.473Z,69.30
2017-11-06T22:34:35.005Z,69.50
2017-11-06T22:37:02.525Z,69.50
2017-11-06T22:39:30.065Z,69.50
2017-11-06T22:41:58.330Z,70.00
2017-11-06T22:44:26.627Z,70.20
2017-11-06T22:46:54.209Z,70.20
2017-11-06T22:49:21.699Z,70.60
2017-11-06T22:51:49.259Z,70.40
2017-11-06T22:54:16.764Z,70.40
2017-11-06T22:56:44.341Z,70.30
2017-11-06T22:59:11.857Z,70.30
2017-11-06T23:01:40.134Z,70.70
2017-11-06T23:04:08.421Z,70.60
2017-11-06T23:06:36.706Z,70.90
2017-11-06T23:09:04.232Z,70.80
2017-11-06T23:11:31.800Z,70.80
2017-11-06T23:14:00.118Z,70.90
2017-11-06T23:16:27.690Z,70.80
2017-11-06T23:18:55.206Z,70.60
2017-11-06T23:21:22.715Z,70.60
2017-11-06T23:23:50.246Z,70.80
2017-11-06T23:26:17.760Z,70.90
2017-11-06T23:28:46.057Z,71.00
2017-11-06T23:31:13.568Z,70.90
2017-11-06T23:33:41.064Z,70.80
2017-11-06T23:36:09.373Z,70.80
2017-11-06T23:38:37.018Z,70.80
2017-11-06T23:41:04.565Z,70.80
2017-11-06T23:43:32.094Z,70.90
2017-11-06T23:45:59.601Z,71.00
2017-11-06T23:48:27.125Z,71.80
2017-11-06T23:50:55.393Z,71.10
2017-11-06T23:53:23.655Z,70.90
2017-11-06T23:55:51.181Z,70.80
2017-11-06T23:58:18.697Z,71.00
